Kelso, ND

8:59 AM CST on February 07, 2016 (GMT -0600)
Jeff and Kari's | | Change Station
CLOSE
Current Station
Personal Weather Station
Location: Buxton, ND
Elevation: 860 ft
Nearby Weather Stations
Active Advisory: Blizzard Warning

Elev 860 ft 47.57 °N, 96.93 °W | Updated 60 seconds ago

Overcast
Overcast
35.0 °F
Feels Like 29 °F
N
7.0
Wind Variable Wind from WNW
Gusts 8.0 mph

Today
High -- | Low -- °F
--% Chance of Precip.
Yesterday
High -- | Low -- °F
Precip. -- in
Pressure 29.63 in
Visibility 10.0 miles
Clouds Overcast 3700 ft
Windchill 29 °F
Dew Point 31 °F
Humidity 84%
Rainfall 0.18 in
Snow Depth Not available.
7:46 AM 5:38 PM
Waning Crescent, 1% visible
METAR KFAR 071453Z 28021G27KT 10SM OVC037 02/M02 A2960 RMK AO2 PK WND 28027/1453 SLP032 T00221022 50007
Pressure 29.63 in
Visibility 10.0 miles
Clouds Overcast 3700 ft
Windchill 29 °F
Dew Point 31 °F
Humidity 84%
Rainfall 0.18 in
Snow Depth Not available.
7:46 AM 5:38 PM
Waning Crescent, 1% visible
METAR KFAR 071453Z 28021G27KT 10SM OVC037 02/M02 A2960 RMK AO2 PK WND 28027/1453 SLP032 T00221022 50007

10-Day Weather Forecast

Almanac

Astronomy

Feb. 07, 2016 Rise Set
Actual Time
Civil Twilight
Nautical Twilight
Astronomical Twilight
Moon
Length of Visible Light
Length of Day
Tomorrow will be .
, % of the Moon is Illuminated

Today's Extremes

State Highs State Lows

Community

WunderPhotos

Upload Photos

1,891,205 photos uploaded!

WunderBlog® & News

Nearby

Air Quality

  Air Quality AQ Index Pollutant
Not available.

Snow Depth

Station Depth Elevation

Earthquake Activity

City Distance Mag. Time & Date
Minimum magnitude displayed is 2.5.

Coastal Water Temperatures

Place Temperature

Stations

Nearby Weather Stations

Station Location Temp. Windchill Dew Point Humidity Wind Precip. Elev Updated Type
                   

Watches & Warnings

Blizzard Warning
Issued: 4:22 AM CST Feb. 7, 2016 – National Weather Service

... Blizzard Warning remains in effect until 6 am CST Monday...

* timing... expect blizzard conditions to develop around 6 to 9 am
Sunday and then diminish around 6 am Monday.

* Winds / visibilities... winds gusting as high as 55 mph will
cause whiteout conditions in blowing snow. Significant drifting
of the snow is likely... especially in open areas.

* Snow accumulations... up to 1 to 3 inches.

* Impacts... travel will be very difficult.

Precautionary/preparedness actions...

A Blizzard Warning means severe winter weather conditions are
expected or occurring. Falling and blowing snow with strong winds
and poor visibilities are likely. This will lead to whiteout
conditions... making travel extremely dangerous. Do not travel. If
you must travel... have a winter survival kit with you. If you get
stranded... stay with your vehicle. The latest Road conditions for
the state you are calling from can be obtained by calling 5 1 1.